Latest Weather Observations for Kyabram

IDV60801

Issued at 10:02 pm EST Thursday 20 June 2019 (issued every 10 minutes, with the page automatically refreshed every 10 minutes)

About weather observations | Map of weather stations | Latest weather observations for VIC | Other Formats
Station Details ID: 080091 Name: KYABRAM Lat: -36.34 Lon: 145.06 Height: 105.0 m
Data from the previous 72 hours. | See also: Recent months at Kyabram
Date/Time
EST
Temp
°C
App
Temp
°C
Dew
Point
°C
Rel
Hum
%
Delta-T
°C
Wind Press
QNH
hPa
Press
MSL
hPa
Rain since
9am
mm
Dir  Spd
km/h
Gust
km/h
Spd
kts
Gust
kts
20/10:00pm 4.1 2.8 4.1 100 0.0 CALM 0 0 0 0 - - 0.0
20/09:30pm 4.9 3.8 4.9 100 0.0 CALM 0 0 0 0 - - 0.0
20/09:00pm 5.4 4.3 5.3 99 0.0 CALM 0 0 0 0 - - 0.0
20/08:30pm 6.3 5.4 6.2 99 0.0 CALM 0 0 0 0 - - 0.0
20/08:00pm 6.7 5.9 6.6 99 0.0 CALM 0 0 0 0 - - 0.0
20/07:30pm 6.7 5.9 6.6 99 0.0 CALM 0 0 0 0 - - 0.0
20/07:00pm 6.4 5.6 6.3 99 0.0 CALM 0 0 0 0 - - 0.0
20/06:30pm 6.2 5.3 6.1 99 0.0 CALM 0 0 0 0 - - 0.0
20/06:00pm 7.1 5.5 6.5 96 0.3 SSW 4 9 2 5 - - 0.0
20/05:30pm 7.7 6.9 6.5 92 0.6 CALM 0 0 0 0 - - 0.0
20/05:00pm 8.2 6.4 5.5 83 1.2 WSW 4 11 2 6 - - 0.0
20/04:30pm 8.4 5.7 5.7 83 1.2 SW 9 13 5 7 - - 0.0
20/04:00pm 8.2 5.8 5.3 82 1.3 SW 7 11 4 6 - - 0.0
20/03:30pm 8.1 4.4 4.7 79 1.5 SW 13 22 7 12 - - 0.0
20/03:00pm 9.1 6.3 5.3 77 1.7 SSW 9 15 5 8 - - 0.0
20/02:30pm 9.7 6.4 4.3 69 2.4 S 11 19 6 10 - - 0.0
20/02:00pm 9.8 5.8 2.9 62 3.0 SW 13 19 7 10 - - 0.0
20/01:30pm 10.2 6.5 4.4 67 2.6 SSW 13 24 7 13 - - 0.0
20/01:00pm 10.7 7.8 4.8 67 2.7 SW 9 17 5 9 - - 0.0
20/12:30pm 10.3 7.9 6.8 79 1.7 SW 9 15 5 8 - - 0.0
20/12:00pm 8.7 7.9 6.3 85 1.1 CALM 0 0 0 0 - - 0.0
20/11:30am 8.5 7.8 8.4 99 0.0 W 2 11 1 6 - - 0.0
20/11:00am 6.9 6.2 6.9 100 0.0 CALM 0 0 0 0 - - 0.0
20/10:30am 6.3 5.5 6.3 100 0.0 CALM 0 0 0 0 - - 0.0
20/10:00am 5.5 4.5 5.5 100 0.0 CALM 0 0 0 0 - - 0.0
20/09:30am 4.8 3.6 4.8 100 0.0 CALM 0 0 0 0 - - 0.0
20/09:00am 4.1 2.8 4.1 100 0.0 CALM 0 0 0 0 - - 0.2
20/08:30am 1.2 -0.6 1.2 100 0.0 CALM 0 0 0 0 - - 0.2
20/08:00am 0.2 -1.8 0.2 100 0.0 CALM 0 0 0 0 - - 0.2
20/07:30am 1.3 -0.5 1.3 100 0.0 CALM 0 0 0 0 - - 0.2
20/07:00am 1.3 -0.5 1.3 100 0.0 CALM 0 0 0 0 - - 0.2
20/06:30am 1.5 -0.3 1.5 100 0.0 CALM 0 0 0 0 - - 0.2
20/06:00am 0.5 -1.4 0.5 100 0.0 CALM 0 0 0 0 - - 0.2
20/05:30am 0.7 -1.2 0.7 100 0.0 CALM 0 0 0 0 - - 0.2
20/05:00am 1.1 -0.7 1.1 100 0.0 CALM 0 0 0 0 - - 0.2
20/04:30am 1.7 0.0 1.7 100 0.0 CALM 0 0 0 0 - - 0.2
20/04:00am 1.8 0.1 1.8 100 0.0 CALM 0 0 0 0 - - 0.2
20/03:30am 2.1 0.4 2.1 100 0.0 CALM 0 0 0 0 - - 0.2
20/03:00am 2.8 1.3 2.8 100 0.0 CALM 0 0 0 0 - - 0.2
20/02:30am 2.6 1.0 2.6 100 0.0 CALM 0 0 0 0 - - 0.2
20/02:00am 2.4 0.8 2.4 100 0.0 CALM 0 0 0 0 - - 0.2
20/01:30am 3.1 1.6 3.1 100 0.0 CALM 0 0 0 0 - - 0.2
20/01:00am 3.4 2.0 3.4 100 0.0 CALM 0 0 0 0 - - 0.2
20/12:30am 3.5 2.1 3.4 99 0.0 CALM 0 0 0 0 - - 0.2
20/12:00am 4.0 2.7 3.9 99 0.0 CALM 0 0 0 0 - - 0.2
 
Date/Time
EST
Temp
°C
App
Temp
°C
Dew
Point
°C
Rel
Hum
%
Delta-T
°C
Wind Press
QNH
hPa
Press
MSL
hPa
Rain since
9am
mm
Dir  Spd
km/h
Gust
km/h
Spd
kts
Gust
kts
19/11:30pm 4.6 3.4 4.5 99 0.0 CALM 0 0 0 0 - - 0.2
19/11:00pm 5.3 4.2 5.2 99 0.0 CALM 0 0 0 0 - - 0.2
19/10:30pm 6.2 5.2 5.6 96 0.3 CALM 0 0 0 0 - - 0.2
19/10:00pm 6.8 5.9 6.1 95 0.3 CALM 0 0 0 0 - - 0.2
19/09:30pm 6.6 5.6 5.7 94 0.4 CALM 0 0 0 0 - - 0.2
19/09:00pm 7.5 6.6 6.1 91 0.6 CALM 0 0 0 0 - - 0.2
19/08:30pm 7.5 6.8 6.8 95 0.3 CALM 0 0 0 0 - - 0.2
19/08:00pm 7.7 7.0 6.8 94 0.4 CALM 0 0 0 0 - - 0.2
19/07:30pm 7.8 7.0 6.7 93 0.5 CALM 0 0 0 0 - - 0.2
19/07:00pm 7.8 7.0 6.4 91 0.6 CALM 0 0 0 0 - - 0.2
19/06:30pm 7.9 7.2 7.0 94 0.4 CALM 0 0 0 0 - - 0.2
19/06:00pm 8.1 7.2 6.2 88 0.9 CALM 0 0 0 0 - - 0.2
19/05:30pm 8.3 7.2 5.2 81 1.4 CALM 0 0 0 0 - - 0.2
19/05:00pm 8.9 7.8 5.3 78 1.6 CALM 0 0 0 0 - - 0.2
19/04:30pm 9.9 8.8 5.1 72 2.2 CALM 0 0 0 0 - - 0.2
19/04:00pm 10.3 9.1 4.5 67 2.6 CALM 0 0 0 0 - - 0.2
19/03:30pm 10.3 9.1 4.5 67 2.6 CALM 0 0 0 0 - - 0.2
19/03:00pm 10.4 7.8 4.3 66 2.7 SSW 7 11 4 6 - - 0.2
19/02:30pm 10.5 9.0 4.9 68 2.5 S 2 11 1 6 - - 0.2
19/02:00pm 10.1 7.1 4.3 67 2.6 SSE 9 17 5 9 - - 0.2
19/01:30pm 10.4 7.9 5.0 69 2.5 SW 7 15 4 8 - - 0.2
19/01:00pm 10.6 7.9 5.4 70 2.4 SW 9 13 5 7 - - 0.2
19/12:30pm 9.8 7.0 5.0 72 2.2 SSW 9 17 5 9 - - 0.2
19/12:00pm 9.6 7.3 5.8 77 1.7 SSW 7 13 4 7 - - 0.0
19/11:30am 8.6 7.1 5.0 78 1.6 SW 2 11 1 6 - - 0.0
19/11:00am 8.1 5.4 5.7 85 1.1 SSW 9 13 5 7 - - 0.0
19/10:30am 7.1 4.5 5.9 92 0.5 SSW 9 15 5 8 - - 0.0
19/10:00am 5.7 4.7 5.6 99 0.0 CALM 0 0 0 0 - - 0.0
19/09:30am 4.4 3.1 4.3 99 0.0 CALM 0 0 0 0 - - 0.0
19/09:00am 3.6 2.2 3.6 100 0.0 CALM 0 0 0 0 - - 1.0
19/08:30am 1.7 0.0 1.7 100 0.0 CALM 0 0 0 0 - - 1.0
19/08:00am 1.6 -0.1 1.6 100 0.0 CALM 0 0 0 0 - - 1.0
19/07:30am 0.6 -1.3 0.6 100 0.0 CALM 0 0 0 0 - - 1.0
19/07:00am 0.8 -1.1 0.8 100 0.0 CALM 0 0 0 0 - - 1.0
19/06:30am 1.0 -0.8 1.0 100 0.0 CALM 0 0 0 0 - - 1.0
19/06:00am 1.2 -0.6 1.1 99 0.0 CALM 0 0 0 0 - - 1.0
19/05:30am 1.8 0.1 1.8 100 0.0 CALM 0 0 0 0 - - 1.0
19/05:00am 1.5 -0.3 1.4 99 0.0 CALM 0 0 0 0 - - 1.0
19/04:30am 1.3 -0.5 1.2 99 0.0 CALM 0 0 0 0 - - 1.0
19/04:00am 1.9 0.2 1.8 99 0.0 CALM 0 0 0 0 - - 1.0
19/03:30am 2.3 0.7 2.2 99 0.0 CALM 0 0 0 0 - - 1.0
19/03:00am 2.7 1.1 2.6 99 0.0 CALM 0 0 0 0 - - 1.0
19/02:30am 2.7 1.1 2.6 99 0.0 CALM 0 0 0 0 - - 1.0
19/02:00am 3.1 1.6 3.0 99 0.0 CALM 0 0 0 0 - - 1.0
19/01:30am 3.3 1.8 3.2 99 0.0 CALM 0 0 0 0 - - 1.0
19/01:00am 3.5 2.1 3.4 99 0.0 CALM 0 0 0 0 - - 1.0
19/12:30am 3.9 2.5 3.8 99 0.0 CALM 0 0 0 0 - - 1.0
19/12:00am 4.1 2.8 4.0 99 0.0 CALM 0 0 0 0 - - 1.0
 
Date/Time
EST
Temp
°C
App
Temp
°C
Dew
Point
°C
Rel
Hum
%
Delta-T
°C
Wind Press
QNH
hPa
Press
MSL
hPa
Rain since
9am
mm
Dir  Spd
km/h
Gust
km/h
Spd
kts
Gust
kts
18/11:30pm 3.8 1.6 3.5 98 0.1 W 4 7 2 4 - - 1.0
18/11:00pm 5.0 2.4 4.3 95 0.3 WSW 7 13 4 7 - - 1.0
18/10:30pm 5.0 2.4 4.4 96 0.3 WSW 7 11 4 6 - - 1.0
18/10:00pm 4.6 2.2 4.5 99 0.0 WSW 6 9 3 5 - - 1.0
18/09:30pm 4.5 2.1 4.4 99 0.0 W 6 7 3 4 - - 1.0
18/09:00pm 5.6 3.7 4.9 95 0.3 WSW 4 11 2 6 - - 1.0
18/08:30pm 6.1 3.3 5.2 94 0.4 WSW 9 13 5 7 - - 1.0
18/08:00pm 6.1 3.9 5.1 93 0.4 WSW 6 9 3 5 - - 1.0
18/07:30pm 6.4 3.7 5.5 94 0.4 WSW 9 15 5 8 - - 1.0
18/07:00pm 6.8 4.2 6.1 95 0.3 WSW 9 13 5 7 - - 1.0
18/06:30pm 7.1 5.1 7.0 99 0.0 WSW 7 11 4 6 - - 1.0
18/06:00pm 7.6 5.6 7.2 97 0.2 WSW 7 11 4 6 - - 1.0
18/05:30pm 7.8 6.9 7.7 99 0.0 WSW 2 11 1 6 - - 1.0
18/05:00pm 8.3 7.9 8.2 99 0.0 CALM 0 6 0 3 - - 1.0
18/04:30pm 8.5 6.4 8.4 99 0.0 WSW 9 15 5 8 - - 1.0
18/04:00pm 12.0 9.1 6.7 70 2.5 WSW 11 19 6 10 - - 0.0
18/03:30pm 12.8 9.5 6.2 64 3.1 W 13 22 7 12 - - 0.0
18/03:00pm 13.1 9.9 6.9 66 3.0 W 13 22 7 12 - - 0.0
18/02:30pm 13.4 10.9 8.3 71 2.6 WNW 11 20 6 11 - - 0.0
18/02:00pm 12.6 10.2 8.5 76 2.0 NW 11 19 6 10 - - 0.0
18/01:30pm 11.7 9.0 8.9 83 1.4 WNW 13 26 7 14 - - 0.0
18/01:00pm 10.8 8.7 9.7 93 0.6 WNW 11 20 6 11 - - 0.0
18/12:30pm 10.6 8.3 9.0 90 0.8 NW 11 20 6 11 - - 0.0
18/12:00pm 10.5 8.0 9.7 95 0.4 NW 13 20 7 11 - - 0.0
18/11:30am 9.8 7.7 9.7 99 0.1 NW 11 17 6 9 - - 0.0
18/11:00am 10.2 7.4 8.6 90 0.8 NW 13 26 7 14 - - 0.0
18/10:30am 10.5 7.2 7.9 84 1.3 NW 15 28 8 15 - - 0.0
18/10:00am 11.1 7.8 8.0 81 1.5 NW 15 20 8 11 - - 0.0
18/09:30am 9.6 6.3 8.2 91 0.7 N 15 20 8 11 - - 0.0
18/09:00am 9.1 5.8 8.0 93 0.5 N 15 20 8 11 - - 0.2
18/08:30am 8.1 5.9 8.0 99 0.0 N 9 13 5 7 - - 0.2
18/08:00am 7.8 5.9 7.7 99 0.0 N 7 9 4 5 - - 0.2
18/07:30am 8.2 6.1 8.1 99 0.0 N 9 13 5 7 - - 0.2
18/07:00am 8.3 5.8 8.2 99 0.0 NNE 11 17 6 9 - - 0.2
18/06:30am 8.1 5.6 8.0 99 0.0 NNE 11 15 6 8 - - 0.2
18/06:00am 8.0 6.2 7.9 99 0.0 NNE 7 13 4 7 - - 0.0
18/05:30am 8.1 5.9 8.0 99 0.0 N 9 15 5 8 - - 0.0
18/05:00am 8.0 5.8 7.9 99 0.0 N 9 15 5 8 - - 0.0
18/04:30am 7.8 5.2 7.7 99 0.0 N 11 15 6 8 - - 0.0
18/04:00am 7.9 4.9 7.8 99 0.0 NNE 13 19 7 10 - - 0.0
18/03:30am 8.0 5.4 7.9 99 0.0 NNE 11 15 6 8 - - 0.0
18/03:00am 8.0 5.1 8.0 100 0.0 NNE 13 19 7 10 - - 0.0
18/02:30am 7.6 5.0 7.6 100 0.0 NNE 11 15 6 8 - - 0.0
18/02:00am 8.0 5.5 8.0 100 0.0 NNE 11 17 6 9 - - 0.0
18/01:30am 7.8 5.6 7.8 100 0.0 NNE 9 11 5 6 - - 0.0
18/01:00am 8.3 5.8 8.3 100 0.0 NNE 11 17 6 9 - - 0.0
18/12:30am 8.1 6.0 8.1 100 0.0 NNE 9 17 5 9 - - 0.0
18/12:00am 7.5 6.9 7.5 100 0.0 CALM 0 0 0 0 - - 0.0
 
Date/Time
EST
Temp
°C
App
Temp
°C
Dew
Point
°C
Rel
Hum
%
Delta-T
°C
Wind Press
QNH
hPa
Press
MSL
hPa
Rain since
9am
mm
Dir  Spd
km/h
Gust
km/h
Spd
kts
Gust
kts
17/11:30pm 7.6 7.0 7.6 100 0.0 CALM 0 0 0 0 - - 0.0
17/11:00pm 7.4 6.8 7.4 100 0.0 CALM 0 0 0 0 - - 0.0
17/10:30pm 7.5 6.9 7.5 100 0.0 CALM 0 0 0 0 - - 0.0

Other formats

Comma delimited format used in spreadsheet applications
http://www.bom.gov.au/fwo/IDV60801/IDV60801.95833.axf

JavaScript Object Notation format (JSON) in row-major order
http://www.bom.gov.au/fwo/IDV60801/IDV60801.95833.json

Data quality

Most of these data are generated automatically and are frequently updated. Quality checks on data are not normally performed. It is possible for incorrect values to appear. Refer to information at About Latest Weather Observations and please check the disclaimer before using these data.